Time;durP1;ratioP1;P1;durP2;ratioP2;P2;SDS_P1;SDS_P2;PMS_P1;PMS_P2;Temp;Humidity;BMP_temperature;BMP_pressure;BME280_temperature;BME280_humidity;BME280_pressure;Samples;Min_cycle;Max_cycle;Signal;HPM_P1;HPM_P2
2021/04/16 00:00:58;;;;;;;14.80;9.17;;;;;;;1.15;90.12;98925.79;239183;1196;23115;-75
2021/04/16 00:06:01;;;;;;;18.30;10.73;;;;;;;1.14;90.57;98931.29;239142;1199;23571;-75
2021/04/16 00:11:17;;;;;;;18.67;10.70;;;;;;;1.14;90.48;98921.53;239573;1196;23137;-74
2021/04/16 00:16:24;;;;;;;16.83;9.63;;;;;;;1.15;90.90;98924.99;239472;1196;27329;-74
2021/04/16 00:21:28;;;;;;;16.30;10.10;;;;;;;1.12;90.20;98913.05;239266;1199;23202;-75
2021/04/16 00:26:31;;;;;;;15.55;9.45;;;;;;;1.14;90.55;98916.25;239103;1196;23120;-75
2021/04/16 00:31:35;;;;;;;18.23;11.53;;;;;;;1.12;90.90;98914.86;239360;1196;23612;-75
2021/04/16 00:36:38;;;;;;;16.70;10.57;;;;;;;1.15;90.73;98909.16;239560;1198;23261;-75
2021/04/16 00:41:42;;;;;;;18.85;11.40;;;;;;;1.17;90.96;98913.16;239341;1196;23145;-74
2021/04/16 00:46:52;;;;;;;17.00;11.03;;;;;;;1.18;90.59;98912.14;239332;1195;23161;-75
2021/04/16 00:52:01;;;;;;;18.83;10.30;;;;;;;1.19;90.70;98903.20;239383;1196;23115;-75
2021/04/16 00:57:06;;;;;;;19.27;11.37;;;;;;;1.19;90.50;98903.20;239420;1199;24747;-74
2021/04/16 01:02:09;;;;;;;14.10;9.00;;;;;;;1.22;91.00;98911.69;239311;1199;23138;-75
2021/04/16 01:07:12;;;;;;;18.37;11.40;;;;;;;1.20;91.00;98898.72;239633;1196;23118;-75
2021/04/16 01:12:16;;;;;;;18.03;10.07;;;;;;;1.21;90.73;98907.47;239344;1196;23212;-76
2021/04/16 01:17:19;;;;;;;18.05;10.50;;;;;;;1.18;90.98;98896.31;239657;1196;23125;-75
2021/04/16 01:22:27;;;;;;;18.97;11.87;;;;;;;1.19;91.30;98902.41;239506;1199;23280;-74
2021/04/16 01:27:30;;;;;;;17.95;11.10;;;;;;;1.21;90.49;98902.98;239267;1196;23148;-74
2021/04/16 01:32:35;;;;;;;20.70;11.60;;;;;;;1.21;91.21;98902.19;239426;1196;23127;-75
2021/04/16 01:37:38;;;;;;;17.43;10.60;;;;;;;1.21;90.95;98900.34;239507;1196;26005;-73
2021/04/16 01:42:41;;;;;;;16.55;10.60;;;;;;;1.23;90.88;98898.27;239369;1196;23105;-75
2021/04/16 01:47:43;;;;;;;18.20;10.90;;;;;;;1.25;90.96;98892.80;239423;1196;23173;-75
2021/04/16 01:52:46;;;;;;;18.07;11.10;;;;;;;1.29;91.31;98886.04;239231;1196;23122;-74
2021/04/16 01:57:51;;;;;;;24.67;14.27;;;;;;;1.32;91.05;98891.66;239724;1196;23134;-75
2021/04/16 02:02:55;;;;;;;20.30;11.00;;;;;;;1.33;91.14;98879.25;239410;1199;26204;-75
2021/04/16 02:07:58;;;;;;;21.23;11.73;;;;;;;1.31;91.12;98876.84;239456;1196;23115;-75
2021/04/16 02:13:05;;;;;;;24.30;12.50;;;;;;;1.27;90.95;98883.59;239508;1199;23204;-74
2021/04/16 02:18:07;;;;;;;21.15;12.50;;;;;;;1.25;90.79;98877.75;239844;1196;26254;-75
2021/04/16 02:23:11;;;;;;;17.17;10.70;;;;;;;1.23;90.97;98881.64;239256;1196;23169;-75
2021/04/16 02:28:14;;;;;;;24.47;13.70;;;;;;;1.22;90.67;98880.84;239426;1196;23250;-74
2021/04/16 02:33:18;;;;;;;20.95;12.50;;;;;;;1.24;91.35;98880.62;239491;1197;23122;-75
2021/04/16 02:38:21;;;;;;;19.83;11.17;;;;;;;1.23;90.96;98871.88;239543;1196;23128;-75
2021/04/16 02:43:24;;;;;;;21.50;12.43;;;;;;;1.22;90.93;98872.10;239320;1196;23136;-75
2021/04/16 02:48:26;;;;;;;20.90;12.00;;;;;;;1.22;91.23;98874.74;239267;1196;23118;-75
2021/04/16 02:53:29;;;;;;;19.00;11.50;;;;;;;1.20;90.63;98882.89;239267;1196;23095;-75
2021/04/16 02:58:32;;;;;;;23.23;13.03;;;;;;;1.19;90.75;98876.81;239324;1196;23124;-75
2021/04/16 03:03:35;;;;;;;27.47;14.93;;;;;;;1.23;91.47;98881.64;239581;1196;23128;-74
2021/04/16 03:08:40;;;;;;;24.90;13.40;;;;;;;1.27;90.53;98877.52;239538;1196;25028;-76
2021/04/16 03:13:42;;;;;;;24.70;14.70;;;;;;;1.25;91.17;98877.75;239354;1195;24785;-74
2021/04/16 03:18:46;;;;;;;25.80;14.53;;;;;;;1.24;91.41;98876.13;239276;1199;23121;-74
2021/04/16 03:23:49;;;;;;;23.80;13.07;;;;;;;1.23;90.90;98877.16;239347;1196;23276;-75
2021/04/16 03:28:55;;;;;;;26.55;14.95;;;;;;;1.23;91.02;98873.72;239280;1196;23158;-74
2021/04/16 03:33:59;;;;;;;22.40;13.07;;;;;;;1.21;91.17;98873.16;239365;1196;23206;-74
2021/04/16 03:39:03;;;;;;;17.67;11.73;;;;;;;1.17;90.92;98867.51;239455;1196;23691;-74
2021/04/16 03:44:06;;;;;;;19.80;10.83;;;;;;;1.14;90.56;98878.52;239483;1196;23134;-74
2021/04/16 03:49:09;;;;;;;20.23;11.43;;;;;;;1.11;91.01;98884.25;239484;1196;23116;-75
2021/04/16 03:54:13;;;;;;;18.65;11.30;;;;;;;1.10;90.91;98883.42;239227;1196;26259;-75
2021/04/16 03:59:18;;;;;;;17.70;11.63;;;;;;;1.13;91.21;98882.17;239057;1196;23102;-75
2021/04/16 04:04:23;;;;;;;13.20;8.50;;;;;;;1.15;90.79;98886.20;239346;1196;23108;-74
2021/04/16 04:09:26;;;;;;;11.00;7.73;;;;;;;1.14;90.70;98878.52;239672;1195;23105;-74
2021/04/16 04:14:30;;;;;;;14.30;9.03;;;;;;;1.10;91.06;98883.42;239233;1199;23108;-74
2021/04/16 04:19:35;;;;;;;13.40;8.45;;;;;;;1.10;90.24;98878.14;239384;1196;23106;-75
2021/04/16 04:24:38;;;;;;;10.47;7.80;;;;;;;1.11;90.91;98884.25;239655;1196;23106;-74
2021/04/16 04:29:41;;;;;;;10.80;7.40;;;;;;;1.10;90.39;98872.87;239461;1196;23233;-75
2021/04/16 04:34:43;;;;;;;10.30;6.80;;;;;;;1.13;90.64;98869.78;239456;1196;23106;-74
2021/04/16 04:39:46;;;;;;;11.17;7.77;;;;;;;1.10;90.04;98875.51;239416;1196;23115;-74
2021/04/16 04:44:49;;;;;;;11.75;7.30;;;;;;;1.10;90.81;98878.14;239071;1196;23121;-75
2021/04/16 04:49:51;;;;;;;10.00;6.33;;;;;;;1.12;90.56;98881.38;239374;1196;23115;-74
2021/04/16 04:54:56;;;;;;;11.40;6.70;;;;;;;1.11;90.25;98879.77;239443;1195;23145;-74
2021/04/16 04:59:59;;;;;;;10.97;6.77;;;;;;;1.12;90.43;98891.94;239909;1196;23115;-75
2021/04/16 05:05:02;;;;;;;11.73;6.87;;;;;;;1.09;89.80;98889.75;239264;1196;23111;-75
2021/04/16 05:10:07;;;;;;;11.55;6.90;;;;;;;1.10;90.57;98883.42;239568;1197;23109;-74
2021/04/16 05:15:11;;;;;;;12.77;6.83;;;;;;;1.13;90.57;98882.97;239604;1196;23122;-74
2021/04/16 05:20:14;;;;;;;8.73;5.87;;;;;;;1.18;90.92;98880.48;239402;1196;23138;-74
2021/04/16 05:25:19;;;;;;;10.50;6.93;;;;;;;1.25;90.35;98884.88;239502;1199;23115;-75
2021/04/16 05:30:23;;;;;;;8.03;5.87;;;;;;;1.27;90.92;98888.88;239526;1196;23137;-74
2021/04/16 05:35:26;;;;;;;11.90;7.37;;;;;;;1.29;90.90;98897.39;239218;1196;23139;-74
2021/04/16 05:40:29;;;;;;;10.67;7.20;;;;;;;1.32;90.45;98889.02;239385;1196;26002;-74
2021/04/16 05:45:31;;;;;;;10.15;7.10;;;;;;;1.38;90.26;98899.72;239563;1196;23104;-75
2021/04/16 05:50:36;;;;;;;8.87;5.77;;;;;;;1.40;90.47;98890.55;239217;1196;23128;-75
2021/04/16 05:55:40;;;;;;;8.37;6.10;;;;;;;1.38;89.82;98892.59;239294;1199;23106;-74
2021/04/16 06:00:43;;;;;;;8.70;6.00;;;;;;;1.39;90.08;98890.77;239554;1195;23337;-74
2021/04/16 06:05:46;;;;;;;8.97;5.83;;;;;;;1.36;89.85;98894.66;239654;1196;23106;-76
2021/04/16 06:10:49;;;;;;;9.13;6.40;;;;;;;1.38;89.79;98895.23;239468;1195;23111;-74
2021/04/16 06:15:52;;;;;;;9.63;6.43;;;;;;;1.44;90.54;98888.24;239375;1196;23145;-75
2021/04/16 06:20:55;;;;;;;10.37;6.83;;;;;;;1.45;89.94;98888.02;239431;1196;23131;-74
2021/04/16 06:26:00;;;;;;;8.60;6.10;;;;;;;1.48;90.74;98890.23;239402;1196;23125;-74
2021/04/16 06:31:03;;;;;;;8.00;5.70;;;;;;;1.53;90.36;98892.18;239457;1199;23205;-75
2021/04/16 06:36:09;;;;;;;7.30;5.40;;;;;;;1.59;90.50;98891.27;239608;1199;23127;-75
2021/04/16 06:41:25;;;;;;;8.23;6.23;;;;;;;1.68;90.42;98894.41;242637;1196;23106;-75
2021/04/16 06:46:28;;;;;;;9.50;6.85;;;;;;;1.74;90.41;98893.48;239796;1196;23109;-75
2021/04/16 06:51:35;;;;;;;11.40;6.80;;;;;;;1.80;90.61;98892.56;239595;1196;23116;-75
2021/04/16 06:56:41;;;;;;;8.73;6.27;;;;;;;1.89;90.20;98893.05;239596;1196;23466;-74
2021/04/16 07:01:52;;;;;;;9.60;6.60;;;;;;;1.94;89.82;98893.16;239622;1196;23115;-74
2021/04/16 07:06:56;;;;;;;;;;;;;;;1.97;90.34;98894.53;239279;1201;23185;-75
2021/04/16 07:12:11;;;;;;;7.70;5.70;;;;;;;1.97;89.62;98900.64;239504;1195;21600;-74
2021/04/16 07:17:21;;;;;;;8.05;5.70;;;;;;;1.92;90.24;98899.69;239306;1196;23111;-74
2021/04/16 07:22:37;;;;;;;8.65;5.80;;;;;;;1.90;90.07;98901.77;239494;1199;25968;-75
2021/04/16 07:27:47;;;;;;;7.80;5.77;;;;;;;1.84;90.03;98901.64;239471;1194;23138;-75
2021/04/16 07:32:51;;;;;;;7.55;5.70;;;;;;;1.85;90.02;98913.03;239395;1196;23259;-75
2021/04/16 07:38:10;;;;;;;7.30;5.20;;;;;;;1.88;90.57;98905.44;239671;1199;26204;-75
2021/04/16 07:43:38;;;;;;;7.97;5.13;;;;;;;1.96;90.24;98901.67;239540;1199;23111;-74
2021/04/16 07:48:41;;;;;;;9.37;6.13;;;;;;;1.99;90.42;98901.20;239720;1195;23095;-74
2021/04/16 07:53:49;;;;;;;9.00;6.50;;;;;;;2.02;90.04;98899.95;239825;1195;23503;-75
2021/04/16 07:59:09;;;;;;;11.70;6.67;;;;;;;2.04;90.08;98913.72;240357;1199;23209;-74
2021/04/16 08:04:19;;;;;;;8.45;6.10;;;;;;;2.07;89.90;98918.58;239516;1197;23125;-75
2021/04/16 08:09:22;;;;;;;9.43;5.87;;;;;;;2.10;90.53;98915.47;239537;1199;23207;-74
2021/04/16 08:14:31;;;;;;;9.30;5.83;;;;;;;2.09;90.04;98920.98;239551;1196;23117;-75
2021/04/16 08:19:38;;;;;;;8.13;5.00;;;;;;;2.09;89.81;98911.21;239470;1197;23247;-74
2021/04/16 08:24:55;;;;;;;8.40;5.57;;;;;;;2.12;90.34;98917.88;239625;1195;23224;-74
2021/04/16 08:30:33;;;;;;;7.60;5.40;;;;;;;2.17;90.01;98915.33;239306;1196;23121;-74
2021/04/16 08:35:45;;;;;;;6.80;4.45;;;;;;;2.16;89.87;98917.18;239357;1196;23072;-74
2021/04/16 08:40:52;;;;;;;6.73;4.60;;;;;;;2.22;90.74;98918.09;239372;1196;23208;-75
2021/04/16 08:45:59;;;;;;;6.97;4.40;;;;;;;2.28;90.31;98924.30;239273;1196;23128;-75
2021/04/16 08:51:14;;;;;;;8.15;5.10;;;;;;;2.23;90.21;98920.52;239386;1197;23148;-75
2021/04/16 08:56:22;;;;;;;10.15;6.55;;;;;;;2.22;90.05;98932.14;239359;1199;26006;-74
2021/04/16 09:01:33;;;;;;;8.73;5.83;;;;;;;2.23;90.23;98928.44;239659;1196;26240;-74
2021/04/16 09:06:36;;;;;;;6.45;4.85;;;;;;;2.26;90.54;98926.39;239384;1196;23116;-75
2021/04/16 09:11:42;;;;;;;8.00;5.37;;;;;;;2.27;90.56;98926.16;239449;1199;23463;-76
2021/04/16 09:16:49;;;;;;;11.35;6.60;;;;;;;2.33;90.71;98932.36;239808;1196;23134;-76
2021/04/16 09:22:03;;;;;;;8.57;6.47;;;;;;;2.40;90.41;98925.91;240063;1199;23654;-75
2021/04/16 09:27:26;;;;;;;9.80;6.23;;;;;;;2.47;90.43;98928.44;239602;1196;23188;-74
2021/04/16 09:32:32;;;;;;;9.27;6.57;;;;;;;2.61;90.31;98934.29;239668;1196;23568;-74
2021/04/16 09:37:47;;;;;;;9.90;6.47;;;;;;;2.66;90.62;98930.94;239702;1199;23125;-75
2021/04/16 09:42:54;;;;;;;11.17;7.13;;;;;;;2.63;90.68;98931.41;239287;1199;23117;-75
2021/04/16 09:48:04;;;;;;;13.40;7.55;;;;;;;2.62;90.61;98930.62;239473;1196;23137;-75
2021/04/16 09:53:21;;;;;;;11.23;6.63;;;;;;;2.68;90.43;98944.75;239201;1199;27303;-75
2021/04/16 09:58:34;;;;;;;10.15;7.00;;;;;;;2.71;91.02;98938.99;239415;1196;23135;-75
2021/04/16 10:03:39;;;;;;;11.13;7.17;;;;;;;2.74;90.67;98935.88;239554;1196;23128;-75
2021/04/16 10:08:59;;;;;;;12.40;8.40;;;;;;;2.75;90.52;98932.20;240241;1199;23112;-74
2021/04/16 10:14:23;;;;;;;14.98;8.73;;;;;;;2.78;90.40;98938.88;240317;1196;24568;-74
2021/04/16 10:19:30;;;;;;;11.97;8.53;;;;;;;2.84;90.54;98932.64;239729;1196;23107;-74
2021/04/16 12:39:33;;;;;;;11.75;7.90;;;;;;;3.38;90.03;98948.25;239404;1195;23271;-75
2021/04/16 12:44:47;;;;;;;10.80;7.20;;;;;;;3.41;90.28;98953.89;239558;1196;23426;-75
2021/04/16 12:49:50;;;;;;;9.27;7.23;;;;;;;3.46;90.07;98955.82;239213;1199;23314;-74
2021/04/16 12:54:53;;;;;;;9.70;7.25;;;;;;;3.49;90.15;98949.25;239493;1196;23121;-74
2021/04/16 12:59:56;;;;;;;11.10;7.57;;;;;;;3.52;90.36;98954.86;239439;1196;23115;-74
2021/04/16 13:05:01;;;;;;;11.47;8.30;;;;;;;3.49;90.30;98947.39;239450;1199;23142;-74
2021/04/16 13:10:12;;;;;;;10.63;8.43;;;;;;;3.45;89.94;98942.81;239701;1196;27503;-77
2021/04/16 13:15:18;;;;;;;10.17;7.77;;;;;;;3.41;89.59;98950.42;239653;1196;23126;-76
2021/04/16 13:20:23;;;;;;;12.53;8.43;;;;;;;3.37;89.83;98942.16;239324;1199;23118;-76
2021/04/16 13:25:29;;;;;;;12.05;8.15;;;;;;;3.39;90.22;98942.71;239719;1196;23133;-77
2021/04/16 13:30:32;;;;;;;13.00;9.80;;;;;;;3.43;90.16;98943.05;239501;1195;23118;-77
2021/04/16 13:35:41;;;;;;;13.50;8.93;;;;;;;3.47;90.11;98938.89;239637;1196;23135;-76
2021/04/16 13:40:45;;;;;;;11.25;7.85;;;;;;;3.45;89.70;98951.55;240087;1196;24914;-77
2021/04/16 13:45:49;;;;;;;15.33;10.37;;;;;;;3.43;90.14;98946.50;239664;1196;23116;-78
2021/04/16 13:50:52;;;;;;;12.95;9.35;;;;;;;3.40;89.40;98943.51;239357;1199;23134;-79
2021/04/16 13:55:54;;;;;;;14.50;9.80;;;;;;;3.33;89.86;98951.61;239665;1195;23120;-79
2021/04/16 14:00:57;;;;;;;12.83;8.77;;;;;;;3.32;89.98;98954.50;240302;1196;23108;-75
2021/04/16 14:06:05;;;;;;;15.83;10.10;;;;;;;3.35;89.47;98951.38;239700;1196;23118;-76
2021/04/16 14:11:09;;;;;;;14.70;9.55;;;;;;;3.43;89.47;98956.30;239547;1196;23098;-76
2021/04/16 14:16:26;;;;;;;12.07;9.00;;;;;;;3.45;89.66;98943.61;239705;1199;26166;-77
2021/04/16 14:21:33;;;;;;;12.13;8.53;;;;;;;3.41;89.50;98950.42;240051;1196;23152;-75
2021/04/16 14:26:37;;;;;;;12.70;9.30;;;;;;;3.40;89.73;98946.98;239330;1196;23103;-77
2021/04/16 14:31:41;;;;;;;11.77;8.80;;;;;;;3.42;89.23;98944.09;239579;1196;23418;-76
2021/04/16 14:36:44;;;;;;;10.67;8.10;;;;;;;3.41;89.53;98956.53;239434;1197;23095;-77
2021/04/16 14:41:47;;;;;;;11.70;8.40;;;;;;;3.40;89.39;98951.45;239680;1196;23164;-76
2021/04/16 14:46:52;;;;;;;9.40;7.80;;;;;;;3.40;89.67;98952.27;239424;1196;23264;-77
2021/04/16 14:51:57;;;;;;;10.70;8.30;;;;;;;3.36;89.30;98953.78;239519;1197;23138;-76
2021/04/16 14:57:01;;;;;;;11.60;8.37;;;;;;;3.31;89.48;98955.53;239540;1196;23128;-75
2021/04/16 15:02:05;;;;;;;11.15;7.95;;;;;;;3.24;89.25;98955.66;239393;1196;23095;-77
2021/04/16 15:07:11;;;;;;;11.37;7.30;;;;;;;3.22;89.76;98961.20;239307;1196;23924;-76
2021/04/16 15:12:17;;;;;;;11.45;8.10;;;;;;;3.20;89.27;98957.17;239695;1196;23132;-77
2021/04/16 15:17:20;;;;;;;12.40;7.77;;;;;;;3.19;89.41;98945.80;239867;1196;25997;-76
2021/04/16 15:22:26;;;;;;;12.10;9.00;;;;;;;3.15;89.75;98946.48;239522;1196;23120;-76
2021/04/16 15:27:34;;;;;;;10.80;8.15;;;;;;;3.18;89.98;98944.17;239579;1196;23135;-76
2021/04/16 15:32:39;;;;;;;13.40;9.20;;;;;;;3.20;89.69;98950.02;239274;1196;23197;-77
2021/04/16 15:48:54;;;;;;;;;;;;;;;3.16;89.64;98954.21;239698;1201;23198;-76
2021/04/16 15:53:56;;;;;;;12.33;8.27;;;;;;;3.12;89.93;98958.36;239368;1196;21598;-76
2021/04/16 15:59:20;;;;;;;16.20;11.00;;;;;;;3.13;89.83;98959.16;239582;1196;23112;-76
2021/04/16 16:04:22;;;;;;;13.35;9.30;;;;;;;3.12;89.60;98958.36;239644;1196;23121;-76
2021/04/16 16:09:30;;;;;;;15.45;10.40;;;;;;;3.13;90.13;98951.22;239789;1196;23455;-76
2021/04/16 16:14:37;;;;;;;15.43;10.17;;;;;;;3.14;90.40;98947.54;239567;1196;23145;-75
2021/04/16 16:19:41;;;;;;;15.10;10.60;;;;;;;3.12;90.02;98942.48;239630;1197;23111;-76
2021/04/16 16:24:44;;;;;;;17.70;11.90;;;;;;;3.12;90.01;98944.30;239556;1196;23202;-76
2021/04/16 16:29:53;;;;;;;17.20;11.27;;;;;;;3.12;90.53;98946.95;239545;1196;23102;-77
2021/04/16 16:34:56;;;;;;;17.10;11.75;;;;;;;3.12;90.72;98949.59;239724;1196;23112;-76
2021/04/16 16:40:00;;;;;;;19.37;12.00;;;;;;;3.10;90.54;98941.89;239720;1196;23115;-76
2021/04/16 16:45:05;;;;;;;18.20;11.60;;;;;;;3.08;90.72;98952.72;239706;1199;26009;-76
2021/04/16 16:50:11;;;;;;;22.05;13.60;;;;;;;3.08;90.90;98952.72;239528;1198;23193;-77
2021/04/16 16:55:14;;;;;;;18.87;11.97;;;;;;;3.10;90.54;98957.78;239715;1196;23116;-76
2021/04/16 17:00:20;;;;;;;18.87;11.90;;;;;;;3.11;91.27;98963.89;239336;1196;23215;-75
2021/04/16 17:05:24;;;;;;;18.53;12.73;;;;;;;3.11;91.21;98962.04;239726;1196;23111;-75
2021/04/16 17:10:26;;;;;;;19.90;12.25;;;;;;;3.11;90.75;98964.69;239393;1196;23229;-75
2021/04/16 17:15:43;;;;;;;18.80;12.30;;;;;;;3.10;90.69;98963.07;239403;1196;23156;-75
2021/04/16 17:20:47;;;;;;;19.70;13.07;;;;;;;3.07;91.04;98974.93;239380;1199;25027;-75
2021/04/16 17:25:55;;;;;;;17.45;12.05;;;;;;;3.06;91.07;98970.70;239482;1196;23187;-74
2021/04/16 17:31:00;;;;;;;19.67;12.43;;;;;;;3.04;91.26;98974.61;239546;1196;23574;-75
2021/04/16 17:36:04;;;;;;;18.75;12.10;;;;;;;3.04;91.52;98974.61;239539;1196;27250;-75
2021/04/16 17:41:34;;;;;;;20.53;13.10;;;;;;;3.05;90.97;98984.14;239578;1196;23111;-75
2021/04/16 17:46:37;;;;;;;27.37;14.97;;;;;;;3.08;91.30;98991.63;239563;1199;23112;-75
2021/04/16 17:51:42;;;;;;;24.55;13.60;;;;;;;3.11;91.21;98996.45;239428;1197;23119;-75
2021/04/16 17:56:46;;;;;;;19.60;12.65;;;;;;;3.12;90.88;98998.07;239545;1196;23127;-76
2021/04/16 18:01:49;;;;;;;17.47;11.60;;;;;;;3.08;90.91;99002.22;239616;1196;23112;-76
2021/04/16 18:07:02;;;;;;;18.95;13.15;;;;;;;3.07;90.96;99011.19;239815;1199;23125;-74
2021/04/16 18:12:06;;;;;;;16.95;11.25;;;;;;;3.05;91.41;99000.84;239725;1198;23077;-75
2021/04/16 18:17:09;;;;;;;14.13;10.13;;;;;;;3.04;91.34;99014.31;239538;1196;23324;-75
2021/04/16 18:22:47;;;;;;;17.50;11.40;;;;;;;2.99;90.82;99001.75;239596;1199;23119;-74
2021/04/16 18:27:52;;;;;;;14.75;10.10;;;;;;;2.97;90.91;99013.64;239659;1199;23138;-75
2021/04/16 18:32:55;;;;;;;13.40;9.95;;;;;;;2.97;90.93;99021.58;239361;1196;23094;-76
2021/04/16 18:38:20;;;;;;;14.50;10.60;;;;;;;2.96;91.28;99026.05;239555;1199;23129;-74
2021/04/16 18:43:23;;;;;;;15.60;10.70;;;;;;;2.94;91.04;99027.30;239703;1196;23135;-75
2021/04/16 18:48:27;;;;;;;13.05;8.95;;;;;;;2.91;91.17;99028.60;239721;1196;23131;-76
2021/04/16 18:53:34;;;;;;;13.55;9.35;;;;;;;2.88;91.18;99029.86;239274;1199;23097;-76
2021/04/16 18:58:37;;;;;;;13.80;9.50;;;;;;;2.85;90.78;99022.36;239696;1199;23165;-76
2021/04/16 19:03:40;;;;;;;18.57;10.97;;;;;;;2.86;91.02;99021.34;239683;1196;23105;-75
2021/04/16 19:08:43;;;;;;;16.53;10.73;;;;;;;2.88;91.22;99023.75;239735;1196;23115;-76
2021/04/16 19:13:46;;;;;;;13.85;10.10;;;;;;;2.89;91.49;99020.86;239662;1196;23109;-77
2021/04/16 19:18:48;;;;;;;20.30;12.20;;;;;;;2.88;91.04;99019.28;239525;1196;23546;-76
2021/04/16 19:23:55;;;;;;;20.15;13.05;;;;;;;2.88;90.97;99021.10;239634;1196;23174;-76
2021/04/16 19:29:00;;;;;;;17.40;12.00;;;;;;;2.93;91.33;99015.14;239883;1196;23194;-77
2021/04/16 19:34:04;;;;;;;17.30;11.40;;;;;;;2.97;91.18;99014.43;239624;1196;27320;-76
2021/04/16 19:39:15;;;;;;;14.80;10.60;;;;;;;3.00;91.80;99005.23;239685;1196;23093;-76
2021/04/16 19:44:18;;;;;;;14.67;10.20;;;;;;;2.98;91.00;99008.11;239693;1199;24574;-76
2021/04/16 20:21:12;;;;;;;24.30;15.35;;;;;;;2.90;91.54;98990.73;239145;1196;23118;-75
2021/04/16 20:26:47;;;;;;;23.10;15.47;;;;;;;2.94;91.82;98992.91;239327;1196;23268;-77
2021/04/16 20:31:57;;;;;;;20.70;13.20;;;;;;;2.97;92.03;98990.61;239567;1196;23114;-76
2021/04/16 20:37:02;;;;;;;22.30;14.90;;;;;;;2.98;91.83;98991.41;239653;1196;23108;-76
2021/04/16 20:42:09;;;;;;;24.57;15.80;;;;;;;2.98;91.64;98994.88;239527;1196;23192;-76
2021/04/16 20:47:17;;;;;;;22.90;15.00;;;;;;;2.99;91.65;99003.61;239666;1199;23114;-76
2021/04/16 20:52:28;;;;;;;21.90;14.50;;;;;;;2.97;91.52;99003.05;239567;1195;24636;-75
2021/04/16 20:57:35;;;;;;;18.75;11.75;;;;;;;2.95;91.53;99007.75;239554;1196;23112;-75
2021/04/16 21:02:37;;;;;;;16.75;11.10;;;;;;;2.89;91.44;98999.70;239714;1196;23130;-76
2021/04/16 21:07:41;;;;;;;15.15;10.00;;;;;;;2.83;91.56;99000.64;239291;1196;23074;-76
2021/04/16 21:12:44;;;;;;;12.40;8.73;;;;;;;2.81;91.63;99000.08;239576;1196;23115;-77
2021/04/16 21:17:48;;;;;;;10.27;7.90;;;;;;;2.75;91.32;98998.34;239472;1196;23138;-76
2021/04/16 21:22:51;;;;;;;9.35;6.95;;;;;;;2.71;91.30;98989.25;239608;1199;23102;-75
2021/04/16 21:27:55;;;;;;;12.37;8.40;;;;;;;2.72;91.91;98996.16;239507;1196;23135;-76
2021/04/16 21:33:11;;;;;;;13.00;7.85;;;;;;;2.70;92.17;98995.58;239170;1195;23131;-74
2021/04/16 21:38:22;;;;;;;12.15;8.60;;;;;;;2.67;91.75;98994.22;239811;1196;26302;-75
2021/04/16 21:43:26;;;;;;;11.50;7.55;;;;;;;2.67;91.97;98990.75;239488;1196;23109;-76
2021/04/16 21:48:36;;;;;;;11.97;8.27;;;;;;;2.69;92.10;98989.48;239629;1196;23108;-75
2021/04/16 21:53:39;;;;;;;10.70;7.93;;;;;;;2.69;91.89;98996.63;239214;1196;23123;-75
2021/04/16 21:58:44;;;;;;;10.17;7.10;;;;;;;2.67;91.53;98998.69;239756;1196;26136;-76
2021/04/16 22:03:51;;;;;;;10.67;7.93;;;;;;;2.66;92.27;98999.72;239570;1196;23125;-75
2021/04/16 22:09:15;;;;;;;10.03;7.70;;;;;;;2.65;92.06;98990.98;239724;1199;23161;-76
2021/04/16 22:14:35;;;;;;;12.47;7.40;;;;;;;2.66;91.73;98984.66;239534;1195;23248;-75
2021/04/16 22:19:42;;;;;;;10.15;6.43;;;;;;;2.64;92.01;98992.02;239531;1199;23141;-76
2021/04/16 22:25:03;;;;;;;9.10;6.30;;;;;;;2.62;91.70;98993.30;239367;1195;23204;-76
2021/04/16 22:30:09;;;;;;;6.57;5.30;;;;;;;2.58;91.53;98986.86;239518;1196;23077;-76
2021/04/16 22:35:24;;;;;;;7.53;5.60;;;;;;;2.58;92.17;98981.58;239468;1196;23122;-77
2021/04/16 22:40:28;;;;;;;8.27;6.37;;;;;;;2.59;92.08;98983.98;239478;1196;24904;-76
2021/04/16 22:45:42;;;;;;;10.80;7.05;;;;;;;2.55;92.05;98978.34;239692;1196;23116;-75
2021/04/16 22:50:47;;;;;;;11.97;7.90;;;;;;;2.56;91.90;98976.48;239472;1199;25379;-75
2021/04/16 22:55:52;;;;;;;8.40;6.90;;;;;;;2.61;91.89;98970.53;239652;1195;23108;-75
2021/04/16 23:01:04;;;;;;;11.15;7.45;;;;;;;2.62;91.68;98982.72;239439;1196;23218;-76
2021/04/16 23:06:28;;;;;;;10.10;7.35;;;;;;;2.63;91.68;98979.84;239467;1196;23145;-75
2021/04/16 23:11:33;;;;;;;9.97;7.03;;;;;;;2.62;92.27;98966.85;239415;1196;23133;-76
2021/04/16 23:16:46;;;;;;;9.15;7.15;;;;;;;2.63;91.90;98971.91;239095;1196;23111;-76
2021/04/16 23:21:56;;;;;;;9.35;7.85;;;;;;;2.62;91.64;98959.71;239611;1197;23102;-75
2021/04/16 23:27:05;;;;;;;8.90;6.80;;;;;;;2.65;91.76;98966.39;239447;1199;23266;-75
2021/04/16 23:32:35;;;;;;;8.70;6.95;;;;;;;2.61;91.99;98960.73;239081;1199;23106;-77
2021/04/16 23:37:45;;;;;;;8.05;6.30;;;;;;;2.55;91.74;98951.09;239433;1196;23121;-76
2021/04/16 23:42:48;;;;;;;9.85;7.00;;;;;;;2.51;91.24;98940.16;239298;1200;23327;-75
2021/04/16 23:47:51;;;;;;;7.90;6.80;;;;;;;2.49;91.65;98942.25;239471;1196;23253;-75
2021/04/16 23:52:54;;;;;;;8.85;6.40;;;;;;;2.49;91.37;98928.20;239508;1199;27208;-75
2021/04/16 23:58:01;;;;;;;8.70;6.73;;;;;;;2.46;91.78;98934.75;239487;1196;23108;-76
